sensor_id;sensor_type;location;lat;lon;timestamp;P1;P2;P0
67714;PMS7003;54505;44.022;20.458;2023-04-09T00:01:31;103.50;79.25;47.50
67714;PMS7003;54505;44.022;20.458;2023-04-09T00:03:57;100.50;77.75;49.25
67714;PMS7003;54505;44.022;20.458;2023-04-09T00:06:22;102.25;82.00;47.25
67714;PMS7003;54505;44.022;20.458;2023-04-09T00:08:48;107.50;84.50;51.50
67714;PMS7003;54505;44.022;20.458;2023-04-09T00:11:14;99.75;84.75;50.00
67714;PMS7003;54505;44.022;20.458;2023-04-09T00:13:39;103.75;81.50;49.25
67714;PMS7003;54505;44.022;20.458;2023-04-09T00:16:06;112.50;97.50;57.00
67714;PMS7003;54505;44.022;20.458;2023-04-09T00:18:31;104.25;89.25;52.25
67714;PMS7003;54505;44.022;20.458;2023-04-09T00:20:57;108.00;96.25;57.75
67714;PMS7003;54505;44.022;20.458;2023-04-09T00:23:22;150.00;117.75;69.50
67714;PMS7003;54505;44.022;20.458;2023-04-09T00:25:48;147.25;117.00;70.75
67714;PMS7003;54505;44.022;20.458;2023-04-09T00:28:14;130.50;106.50;62.75
67714;PMS7003;54505;44.022;20.458;2023-04-09T00:30:40;156.25;134.50;80.50
67714;PMS7003;54505;44.022;20.458;2023-04-09T00:33:06;169.25;137.25;80.50
67714;PMS7003;54505;44.022;20.458;2023-04-09T00:35:32;167.25;131.50;72.50
67714;PMS7003;54505;44.022;20.458;2023-04-09T00:37:57;154.75;127.25;69.00
67714;PMS7003;54505;44.022;20.458;2023-04-09T00:40:23;142.75;117.50;70.00
67714;PMS7003;54505;44.022;20.458;2023-04-09T00:42:49;101.75;82.00;46.75
67714;PMS7003;54505;44.022;20.458;2023-04-09T00:45:15;99.00;72.75;45.50
67714;PMS7003;54505;44.022;20.458;2023-04-09T00:47:40;106.00;85.00;51.00
67714;PMS7003;54505;44.022;20.458;2023-04-09T00:50:08;114.75;91.00;52.25
67714;PMS7003;54505;44.022;20.458;2023-04-09T00:52:33;105.25;81.75;54.25
67714;PMS7003;54505;44.022;20.458;2023-04-09T00:54:59;118.00;97.25;56.00
67714;PMS7003;54505;44.022;20.458;2023-04-09T00:57:25;115.25;90.75;54.00
67714;PMS7003;54505;44.022;20.458;2023-04-09T00:59:53;133.75;103.75;64.25
67714;PMS7003;54505;44.022;20.458;2023-04-09T01:02:18;108.25;90.75;55.00
67714;PMS7003;54505;44.022;20.458;2023-04-09T01:04:44;105.75;88.75;53.75
67714;PMS7003;54505;44.022;20.458;2023-04-09T01:07:12;108.25;82.75;48.00
67714;PMS7003;54505;44.022;20.458;2023-04-09T01:09:42;123.00;105.00;56.50
67714;PMS7003;54505;44.022;20.458;2023-04-09T01:12:32;107.25;89.50;48.25
67714;PMS7003;54505;44.022;20.458;2023-04-09T01:15:10;123.75;104.75;60.50
67714;PMS7003;54505;44.022;20.458;2023-04-09T01:17:55;129.75;105.25;62.00
67714;PMS7003;54505;44.022;20.458;2023-04-09T01:20:34;116.50;88.50;53.25
67714;PMS7003;54505;44.022;20.458;2023-04-09T01:23:10;107.00;85.25;53.25
67714;PMS7003;54505;44.022;20.458;2023-04-09T01:30:35;115.75;102.50;60.25
67714;PMS7003;54505;44.022;20.458;2023-04-09T01:33:01;111.75;91.50;54.50
67714;PMS7003;54505;44.022;20.458;2023-04-09T01:35:28;112.50;99.00;58.50
67714;PMS7003;54505;44.022;20.458;2023-04-09T01:37:53;106.50;79.00;50.25
67714;PMS7003;54505;44.022;20.458;2023-04-09T01:40:20;114.50;93.25;57.50
67714;PMS7003;54505;44.022;20.458;2023-04-09T01:42:45;118.00;92.25;53.75
67714;PMS7003;54505;44.022;20.458;2023-04-09T01:45:12;98.75;83.50;48.50
67714;PMS7003;54505;44.022;20.458;2023-04-09T01:47:39;101.25;78.50;47.00
67714;PMS7003;54505;44.022;20.458;2023-04-09T01:50:05;96.75;72.00;45.75
67714;PMS7003;54505;44.022;20.458;2023-04-09T01:52:31;102.00;79.25;47.25
67714;PMS7003;54505;44.022;20.458;2023-04-09T01:54:57;97.75;72.25;47.25
67714;PMS7003;54505;44.022;20.458;2023-04-09T01:57:23;100.50;78.25;48.00
67714;PMS7003;54505;44.022;20.458;2023-04-09T01:59:48;96.50;72.75;45.25
67714;PMS7003;54505;44.022;20.458;2023-04-09T02:02:16;101.25;73.25;46.00
67714;PMS7003;54505;44.022;20.458;2023-04-09T02:04:45;93.50;72.75;45.75
67714;PMS7003;54505;44.022;20.458;2023-04-09T02:09:40;96.25;69.75;44.50
67714;PMS7003;54505;44.022;20.458;2023-04-09T02:12:09;102.00;78.00;47.75
67714;PMS7003;54505;44.022;20.458;2023-04-09T02:14:36;86.00;60.25;21.75
67714;PMS7003;54505;44.022;20.458;2023-04-09T02:17:03;118.00;102.25;59.25
67714;PMS7003;54505;44.022;20.458;2023-04-09T02:19:42;96.00;70.50;43.00
67714;PMS7003;54505;44.022;20.458;2023-04-09T02:22:07;93.25;67.50;44.00
67714;PMS7003;54505;44.022;20.458;2023-04-09T02:24:34;98.75;70.75;42.25
67714;PMS7003;54505;44.022;20.458;2023-04-09T02:26:59;83.50;62.00;43.25
67714;PMS7003;54505;44.022;20.458;2023-04-09T02:29:26;94.25;69.75;43.75
67714;PMS7003;54505;44.022;20.458;2023-04-09T02:31:52;103.00;74.25;45.25
67714;PMS7003;54505;44.022;20.458;2023-04-09T02:34:18;98.25;73.50;46.50
67714;PMS7003;54505;44.022;20.458;2023-04-09T02:36:43;97.00;70.00;44.75
67714;PMS7003;54505;44.022;20.458;2023-04-09T02:39:09;88.50;68.00;41.75
67714;PMS7003;54505;44.022;20.458;2023-04-09T02:41:35;95.25;71.75;44.50
67714;PMS7003;54505;44.022;20.458;2023-04-09T02:44:01;96.75;71.25;45.00
67714;PMS7003;54505;44.022;20.458;2023-04-09T02:46:26;100.75;73.50;45.75
67714;PMS7003;54505;44.022;20.458;2023-04-09T02:48:52;94.00;69.00;43.50
67714;PMS7003;54505;44.022;20.458;2023-04-09T02:51:17;95.25;72.00;45.00
67714;PMS7003;54505;44.022;20.458;2023-04-09T02:53:43;98.50;74.00;45.75
67714;PMS7003;54505;44.022;20.458;2023-04-09T02:56:09;93.50;66.25;45.00
67714;PMS7003;54505;44.022;20.458;2023-04-09T02:58:35;96.25;74.00;45.75
67714;PMS7003;54505;44.022;20.458;2023-04-09T03:01:01;100.25;79.00;48.00
67714;PMS7003;54505;44.022;20.458;2023-04-09T03:03:26;106.25;83.50;51.75
67714;PMS7003;54505;44.022;20.458;2023-04-09T03:05:52;102.75;77.50;49.00
67714;PMS7003;54505;44.022;20.458;2023-04-09T03:08:18;100.75;85.25;48.25
67714;PMS7003;54505;44.022;20.458;2023-04-09T03:10:43;112.25;87.75;50.75
67714;PMS7003;54505;44.022;20.458;2023-04-09T03:13:09;105.50;81.50;48.25
67714;PMS7003;54505;44.022;20.458;2023-04-09T03:15:35;105.50;79.00;47.00
67714;PMS7003;54505;44.022;20.458;2023-04-09T03:18:01;105.50;84.00;49.50
67714;PMS7003;54505;44.022;20.458;2023-04-09T03:20:26;118.75;94.25;52.50
67714;PMS7003;54505;44.022;20.458;2023-04-09T03:22:52;105.75;82.75;54.25
67714;PMS7003;54505;44.022;20.458;2023-04-09T03:25:17;112.75;93.25;55.75
67714;PMS7003;54505;44.022;20.458;2023-04-09T03:27:45;110.00;82.50;50.00
67714;PMS7003;54505;44.022;20.458;2023-04-09T03:30:11;99.50;76.00;48.25
67714;PMS7003;54505;44.022;20.458;2023-04-09T03:32:36;108.75;87.25;51.50
67714;PMS7003;54505;44.022;20.458;2023-04-09T03:35:02;114.25;87.75;51.75
67714;PMS7003;54505;44.022;20.458;2023-04-09T03:37:28;107.25;84.25;48.75
67714;PMS7003;54505;44.022;20.458;2023-04-09T03:39:53;104.50;81.25;47.50
67714;PMS7003;54505;44.022;20.458;2023-04-09T03:42:19;109.75;84.25;48.75
67714;PMS7003;54505;44.022;20.458;2023-04-09T03:44:45;108.50;95.50;58.00
67714;PMS7003;54505;44.022;20.458;2023-04-09T03:47:10;98.25;72.00;48.00
67714;PMS7003;54505;44.022;20.458;2023-04-09T03:49:36;107.00;87.00;52.50
67714;PMS7003;54505;44.022;20.458;2023-04-09T03:52:02;97.25;74.00;48.25
67714;PMS7003;54505;44.022;20.458;2023-04-09T03:54:28;102.00;73.00;44.25
67714;PMS7003;54505;44.022;20.458;2023-04-09T03:56:54;98.00;70.25;46.50
67714;PMS7003;54505;44.022;20.458;2023-04-09T03:59:20;108.00;90.00;54.50
67714;PMS7003;54505;44.022;20.458;2023-04-09T04:01:46;123.00;108.50;60.00
67714;PMS7003;54505;44.022;20.458;2023-04-09T04:04:12;123.25;95.75;59.00
67714;PMS7003;54505;44.022;20.458;2023-04-09T04:06:38;107.00;89.00;51.25
67714;PMS7003;54505;44.022;20.458;2023-04-09T04:09:03;98.50;73.25;46.75
67714;PMS7003;54505;44.022;20.458;2023-04-09T04:11:29;94.25;68.25;46.25
67714;PMS7003;54505;44.022;20.458;2023-04-09T04:13:55;108.00;86.00;50.75
67714;PMS7003;54505;44.022;20.458;2023-04-09T04:16:21;128.00;100.25;54.25
67714;PMS7003;54505;44.022;20.458;2023-04-09T04:18:46;110.50;86.50;50.75
67714;PMS7003;54505;44.022;20.458;2023-04-09T04:21:13;102.00;79.00;47.25
67714;PMS7003;54505;44.022;20.458;2023-04-09T04:23:39;87.50;67.00;42.00
67714;PMS7003;54505;44.022;20.458;2023-04-09T04:26:08;97.25;73.00;46.25
67714;PMS7003;54505;44.022;20.458;2023-04-09T04:28:35;98.50;75.00;47.25
67714;PMS7003;54505;44.022;20.458;2023-04-09T04:31:01;93.50;72.00;45.25
67714;PMS7003;54505;44.022;20.458;2023-04-09T04:33:27;103.75;77.00;46.25
67714;PMS7003;54505;44.022;20.458;2023-04-09T04:35:53;96.25;71.00;45.00
67714;PMS7003;54505;44.022;20.458;2023-04-09T04:38:18;98.75;71.75;46.25
67714;PMS7003;54505;44.022;20.458;2023-04-09T04:40:44;93.25;71.75;45.50
67714;PMS7003;54505;44.022;20.458;2023-04-09T04:43:09;95.25;71.50;45.75
67714;PMS7003;54505;44.022;20.458;2023-04-09T04:45:35;92.00;71.00;43.75
67714;PMS7003;54505;44.022;20.458;2023-04-09T04:48:03;86.75;65.50;43.00
67714;PMS7003;54505;44.022;20.458;2023-04-09T04:50:29;92.50;71.00;45.00
67714;PMS7003;54505;44.022;20.458;2023-04-09T04:52:55;103.75;78.75;48.25
67714;PMS7003;54505;44.022;20.458;2023-04-09T04:55:21;99.75;76.50;46.75
67714;PMS7003;54505;44.022;20.458;2023-04-09T04:57:46;98.75;74.25;47.50
67714;PMS7003;54505;44.022;20.458;2023-04-09T05:00:12;107.00;80.50;46.00
67714;PMS7003;54505;44.022;20.458;2023-04-09T05:02:38;107.25;84.00;50.25
67714;PMS7003;54505;44.022;20.458;2023-04-09T05:05:04;109.75;88.75;58.25
67714;PMS7003;54505;44.022;20.458;2023-04-09T05:07:29;111.25;91.50;53.75
67714;PMS7003;54505;44.022;20.458;2023-04-09T05:09:55;130.00;109.00;62.75
67714;PMS7003;54505;44.022;20.458;2023-04-09T05:12:21;114.50;96.00;59.00
67714;PMS7003;54505;44.022;20.458;2023-04-09T05:14:46;124.00;99.75;55.00
67714;PMS7003;54505;44.022;20.458;2023-04-09T05:17:12;113.50;95.00;55.25
67714;PMS7003;54505;44.022;20.458;2023-04-09T05:19:38;145.50;115.75;64.00
67714;PMS7003;54505;44.022;20.458;2023-04-09T05:22:03;119.00;99.75;61.00
67714;PMS7003;54505;44.022;20.458;2023-04-09T05:24:29;121.75;98.00;57.00
67714;PMS7003;54505;44.022;20.458;2023-04-09T05:26:54;109.00;86.25;48.75
67714;PMS7003;54505;44.022;20.458;2023-04-09T05:29:20;106.50;87.25;52.00
67714;PMS7003;54505;44.022;20.458;2023-04-09T05:31:46;108.75;92.75;54.00
67714;PMS7003;54505;44.022;20.458;2023-04-09T05:34:11;107.50;82.00;47.00
67714;PMS7003;54505;44.022;20.458;2023-04-09T05:36:37;107.75;87.25;52.25
67714;PMS7003;54505;44.022;20.458;2023-04-09T05:39:03;105.25;83.50;50.25
67714;PMS7003;54505;44.022;20.458;2023-04-09T05:41:28;107.00;77.00;51.50
67714;PMS7003;54505;44.022;20.458;2023-04-09T05:43:54;105.75;80.00;48.00
67714;PMS7003;54505;44.022;20.458;2023-04-09T05:46:20;126.25;104.00;62.50
67714;PMS7003;54505;44.022;20.458;2023-04-09T05:48:46;136.50;108.75;63.50
67714;PMS7003;54505;44.022;20.458;2023-04-09T05:51:11;109.00;101.75;56.75
67714;PMS7003;54505;44.022;20.458;2023-04-09T05:53:37;118.50;99.00;63.50
67714;PMS7003;54505;44.022;20.458;2023-04-09T05:56:03;112.00;95.00;56.75
67714;PMS7003;54505;44.022;20.458;2023-04-09T05:58:37;110.50;96.25;60.75
67714;PMS7003;54505;44.022;20.458;2023-04-09T06:01:02;146.75;123.00;75.75
67714;PMS7003;54505;44.022;20.458;2023-04-09T06:03:28;153.00;126.50;76.50
67714;PMS7003;54505;44.022;20.458;2023-04-09T06:05:54;141.50;117.00;66.75
67714;PMS7003;54505;44.022;20.458;2023-04-09T06:08:19;123.00;98.25;64.75
67714;PMS7003;54505;44.022;20.458;2023-04-09T06:10:45;139.25;124.50;67.00
67714;PMS7003;54505;44.022;20.458;2023-04-09T06:13:11;133.25;111.75;68.50
67714;PMS7003;54505;44.022;20.458;2023-04-09T06:15:37;130.25;110.00;68.00
67714;PMS7003;54505;44.022;20.458;2023-04-09T06:18:03;131.50;115.00;67.50
67714;PMS7003;54505;44.022;20.458;2023-04-09T06:20:28;107.75;88.75;51.25
67714;PMS7003;54505;44.022;20.458;2023-04-09T06:22:55;129.25;108.50;65.25
67714;PMS7003;54505;44.022;20.458;2023-04-09T06:25:20;115.50;100.00;60.25
67714;PMS7003;54505;44.022;20.458;2023-04-09T06:27:46;107.50;91.00;62.25
67714;PMS7003;54505;44.022;20.458;2023-04-09T06:30:12;111.00;88.00;50.25
67714;PMS7003;54505;44.022;20.458;2023-04-09T06:32:37;131.00;113.50;68.00
67714;PMS7003;54505;44.022;20.458;2023-04-09T06:35:03;124.75;105.00;62.75
67714;PMS7003;54505;44.022;20.458;2023-04-09T06:37:29;119.00;102.50;60.00
67714;PMS7003;54505;44.022;20.458;2023-04-09T06:39:55;116.50;98.00;58.75
67714;PMS7003;54505;44.022;20.458;2023-04-09T06:42:20;120.50;103.00;60.00
67714;PMS7003;54505;44.022;20.458;2023-04-09T06:44:46;128.75;102.75;59.50
67714;PMS7003;54505;44.022;20.458;2023-04-09T06:47:12;110.25;91.50;58.00
67714;PMS7003;54505;44.022;20.458;2023-04-09T06:49:37;148.50;121.50;77.00
67714;PMS7003;54505;44.022;20.458;2023-04-09T06:52:03;130.25;105.25;64.50
67714;PMS7003;54505;44.022;20.458;2023-04-09T06:54:29;98.50;84.25;52.00
67714;PMS7003;54505;44.022;20.458;2023-04-09T06:56:54;98.75;76.75;44.75
67714;PMS7003;54505;44.022;20.458;2023-04-09T06:59:20;101.25;87.25;52.75
67714;PMS7003;54505;44.022;20.458;2023-04-09T07:01:46;78.25;57.75;34.50
67714;PMS7003;54505;44.022;20.458;2023-04-09T07:04:11;74.50;59.25;38.00
67714;PMS7003;54505;44.022;20.458;2023-04-09T07:06:37;76.75;59.75;38.75
67714;PMS7003;54505;44.022;20.458;2023-04-09T07:09:04;79.75;58.50;36.00
67714;PMS7003;54505;44.022;20.458;2023-04-09T07:11:30;84.75;61.50;38.75
67714;PMS7003;54505;44.022;20.458;2023-04-09T07:13:56;78.75;60.50;39.25
67714;PMS7003;54505;44.022;20.458;2023-04-09T07:16:21;85.25;64.75;39.00
67714;PMS7003;54505;44.022;20.458;2023-04-09T07:18:47;79.50;63.50;38.50
67714;PMS7003;54505;44.022;20.458;2023-04-09T07:21:13;77.50;60.25;38.00
67714;PMS7003;54505;44.022;20.458;2023-04-09T07:23:39;83.00;64.75;39.00
67714;PMS7003;54505;44.022;20.458;2023-04-09T07:26:05;80.00;64.00;40.25
67714;PMS7003;54505;44.022;20.458;2023-04-09T07:28:31;87.75;67.75;38.75
67714;PMS7003;54505;44.022;20.458;2023-04-09T07:30:57;87.25;69.25;41.25
67714;PMS7003;54505;44.022;20.458;2023-04-09T07:33:22;86.75;71.00;45.00
67714;PMS7003;54505;44.022;20.458;2023-04-09T07:35:48;88.00;77.25;45.50
67714;PMS7003;54505;44.022;20.458;2023-04-09T07:38:13;90.00;78.50;42.75
67714;PMS7003;54505;44.022;20.458;2023-04-09T07:40:40;92.25;74.25;45.00
67714;PMS7003;54505;44.022;20.458;2023-04-09T07:43:06;93.75;79.75;45.00
67714;PMS7003;54505;44.022;20.458;2023-04-09T07:45:32;92.50;74.75;43.25
67714;PMS7003;54505;44.022;20.458;2023-04-09T07:47:57;89.75;77.50;45.75
67714;PMS7003;54505;44.022;20.458;2023-04-09T07:50:23;89.00;71.75;43.50
67714;PMS7003;54505;44.022;20.458;2023-04-09T07:52:49;88.25;68.50;43.50
67714;PMS7003;54505;44.022;20.458;2023-04-09T07:55:15;92.00;79.50;43.50
67714;PMS7003;54505;44.022;20.458;2023-04-09T07:57:40;96.50;82.75;49.25
67714;PMS7003;54505;44.022;20.458;2023-04-09T08:00:08;92.00;75.00;49.50
67714;PMS7003;54505;44.022;20.458;2023-04-09T08:02:33;91.75;71.50;43.50
67714;PMS7003;54505;44.022;20.458;2023-04-09T08:04:59;85.00;69.25;42.75
67714;PMS7003;54505;44.022;20.458;2023-04-09T08:07:25;80.00;62.25;40.50
67714;PMS7003;54505;44.022;20.458;2023-04-09T08:09:50;78.50;61.25;38.00
67714;PMS7003;54505;44.022;20.458;2023-04-09T08:12:16;79.25;61.25;39.25
67714;PMS7003;54505;44.022;20.458;2023-04-09T08:14:42;79.00;57.75;36.00
67714;PMS7003;54505;44.022;20.458;2023-04-09T08:17:08;88.25;70.25;42.50
67714;PMS7003;54505;44.022;20.458;2023-04-09T08:19:34;84.75;65.25;39.50
67714;PMS7003;54505;44.022;20.458;2023-04-09T08:22:00;85.75;66.50;39.50
67714;PMS7003;54505;44.022;20.458;2023-04-09T08:24:27;80.50;58.75;37.00
67714;PMS7003;54505;44.022;20.458;2023-04-09T08:26:53;82.50;61.00;38.00
67714;PMS7003;54505;44.022;20.458;2023-04-09T08:29:19;84.75;63.25;42.00
67714;PMS7003;54505;44.022;20.458;2023-04-09T08:31:44;75.25;58.75;38.75
67714;PMS7003;54505;44.022;20.458;2023-04-09T08:34:10;78.00;60.00;38.50
67714;PMS7003;54505;44.022;20.458;2023-04-09T08:36:37;79.25;61.25;39.25
67714;PMS7003;54505;44.022;20.458;2023-04-09T08:39:02;80.75;60.00;37.25
67714;PMS7003;54505;44.022;20.458;2023-04-09T08:41:28;78.50;61.75;39.00
67714;PMS7003;54505;44.022;20.458;2023-04-09T08:43:54;77.50;60.00;40.00
67714;PMS7003;54505;44.022;20.458;2023-04-09T08:46:20;74.00;56.75;36.00
67714;PMS7003;54505;44.022;20.458;2023-04-09T08:48:47;77.50;58.25;37.00
67714;PMS7003;54505;44.022;20.458;2023-04-09T08:51:17;84.75;64.75;41.25
67714;PMS7003;54505;44.022;20.458;2023-04-09T08:53:48;87.00;72.50;42.75
67714;PMS7003;54505;44.022;20.458;2023-04-09T08:56:16;71.00;52.50;34.75
67714;PMS7003;54505;44.022;20.458;2023-04-09T08:58:43;79.50;61.00;38.00
67714;PMS7003;54505;44.022;20.458;2023-04-09T09:03:54;78.75;65.25;38.50
67714;PMS7003;54505;44.022;20.458;2023-04-09T09:06:21;76.00;59.75;39.00
67714;PMS7003;54505;44.022;20.458;2023-04-09T09:11:25;80.50;60.25;38.00
67714;PMS7003;54505;44.022;20.458;2023-04-09T09:14:24;92.25;77.00;45.25
67714;PMS7003;54505;44.022;20.458;2023-04-09T09:21:56;74.50;58.00;35.75
67714;PMS7003;54505;44.022;20.458;2023-04-09T09:24:22;72.75;56.75;36.00
67714;PMS7003;54505;44.022;20.458;2023-04-09T09:26:47;76.25;58.25;36.00
67714;PMS7003;54505;44.022;20.458;2023-04-09T09:29:13;74.25;54.50;38.00
67714;PMS7003;54505;44.022;20.458;2023-04-09T09:31:49;52.50;39.75;25.00
67714;PMS7003;54505;44.022;20.458;2023-04-09T09:34:16;76.25;58.00;35.75
67714;PMS7003;54505;44.022;20.458;2023-04-09T09:36:42;77.50;60.50;35.75
67714;PMS7003;54505;44.022;20.458;2023-04-09T09:39:08;71.00;52.50;36.50
67714;PMS7003;54505;44.022;20.458;2023-04-09T09:41:38;76.50;58.50;36.75
67714;PMS7003;54505;44.022;20.458;2023-04-09T09:44:07;74.75;56.50;35.00
67714;PMS7003;54505;44.022;20.458;2023-04-09T09:46:34;72.25;54.50;32.75
67714;PMS7003;54505;44.022;20.458;2023-04-09T09:49:01;69.50;53.25;34.75
67714;PMS7003;54505;44.022;20.458;2023-04-09T09:51:26;76.25;56.50;37.00
67714;PMS7003;54505;44.022;20.458;2023-04-09T09:53:54;76.75;56.25;36.00
67714;PMS7003;54505;44.022;20.458;2023-04-09T09:56:21;75.00;58.25;36.50
67714;PMS7003;54505;44.022;20.458;2023-04-09T09:58:53;74.25;56.25;35.75
67714;PMS7003;54505;44.022;20.458;2023-04-09T10:01:20;80.75;60.75;38.00
67714;PMS7003;54505;44.022;20.458;2023-04-09T10:03:48;83.25;61.25;39.25
67714;PMS7003;54505;44.022;20.458;2023-04-09T10:06:14;71.25;54.00;35.00
67714;PMS7003;54505;44.022;20.458;2023-04-09T10:08:41;69.00;52.00;31.00
67714;PMS7003;54505;44.022;20.458;2023-04-09T10:11:07;70.00;56.50;35.00
67714;PMS7003;54505;44.022;20.458;2023-04-09T10:13:37;76.25;55.50;35.75
67714;PMS7003;54505;44.022;20.458;2023-04-09T10:16:03;71.00;57.00;36.75
67714;PMS7003;54505;44.022;20.458;2023-04-09T10:18:31;73.00;56.00;36.25
67714;PMS7003;54505;44.022;20.458;2023-04-09T10:20:58;69.25;55.50;37.00
67714;PMS7003;54505;44.022;20.458;2023-04-09T10:23:30;73.25;56.75;35.00
67714;PMS7003;54505;44.022;20.458;2023-04-09T10:25:56;77.00;58.25;37.75
67714;PMS7003;54505;44.022;20.458;2023-04-09T10:28:23;74.50;58.50;38.25
67714;PMS7003;54505;44.022;20.458;2023-04-09T10:30:48;77.50;57.25;37.50
67714;PMS7003;54505;44.022;20.458;2023-04-09T10:33:15;73.50;57.00;36.50
67714;PMS7003;54505;44.022;20.458;2023-04-09T10:35:41;77.25;59.00;38.00
67714;PMS7003;54505;44.022;20.458;2023-04-09T10:38:07;74.50;54.50;35.75
67714;PMS7003;54505;44.022;20.458;2023-04-09T10:40:34;80.50;59.75;36.75
67714;PMS7003;54505;44.022;20.458;2023-04-09T10:43:00;74.25;55.75;35.00
67714;PMS7003;54505;44.022;20.458;2023-04-09T10:45:25;76.75;58.75;38.50
67714;PMS7003;54505;44.022;20.458;2023-04-09T10:48:03;75.00;58.25;38.00
67714;PMS7003;54505;44.022;20.458;2023-04-09T10:50:31;73.75;57.25;37.00
67714;PMS7003;54505;44.022;20.458;2023-04-09T10:52:57;76.00;58.00;39.00
67714;PMS7003;54505;44.022;20.458;2023-04-09T10:58:01;76.75;61.25;38.00
67714;PMS7003;54505;44.022;20.458;2023-04-09T11:00:27;79.50;61.00;38.50
67714;PMS7003;54505;44.022;20.458;2023-04-09T11:05:35;79.00;62.50;38.00
67714;PMS7003;54505;44.022;20.458;2023-04-09T11:08:06;77.75;59.75;37.00
67714;PMS7003;54505;44.022;20.458;2023-04-09T11:10:34;73.25;58.25;37.75
67714;PMS7003;54505;44.022;20.458;2023-04-09T11:13:00;73.25;56.00;36.00
67714;PMS7003;54505;44.022;20.458;2023-04-09T11:15:26;72.75;56.00;36.25
67714;PMS7003;54505;44.022;20.458;2023-04-09T11:17:52;68.25;53.00;34.75
67714;PMS7003;54505;44.022;20.458;2023-04-09T11:20:21;72.25;54.25;36.00
67714;PMS7003;54505;44.022;20.458;2023-04-09T11:22:51;68.00;55.00;36.00
67714;PMS7003;54505;44.022;20.458;2023-04-09T11:25:18;65.75;50.00;33.50
67714;PMS7003;54505;44.022;20.458;2023-04-09T11:27:44;69.25;53.00;34.00
67714;PMS7003;54505;44.022;20.458;2023-04-09T11:30:10;76.75;58.50;37.25
67714;PMS7003;54505;44.022;20.458;2023-04-09T11:32:36;77.00;57.75;36.50
67714;PMS7003;54505;44.022;20.458;2023-04-09T11:35:02;74.25;59.25;37.25
67714;PMS7003;54505;44.022;20.458;2023-04-09T11:37:28;76.50;60.50;37.75
67714;PMS7003;54505;44.022;20.458;2023-04-09T11:39:53;73.25;57.00;37.00
67714;PMS7003;54505;44.022;20.458;2023-04-09T11:42:20;68.50;50.50;31.50
67714;PMS7003;54505;44.022;20.458;2023-04-09T11:44:50;68.75;51.50;32.00
67714;PMS7003;54505;44.022;20.458;2023-04-09T11:47:16;75.75;57.50;36.00
67714;PMS7003;54505;44.022;20.458;2023-04-09T11:49:43;70.75;55.25;36.25
67714;PMS7003;54505;44.022;20.458;2023-04-09T11:52:09;71.75;56.50;38.00
67714;PMS7003;54505;44.022;20.458;2023-04-09T11:54:35;79.50;59.25;38.00
67714;PMS7003;54505;44.022;20.458;2023-04-09T11:57:04;78.00;59.00;36.75
67714;PMS7003;54505;44.022;20.458;2023-04-09T11:59:29;84.25;67.25;40.25
67714;PMS7003;54505;44.022;20.458;2023-04-09T12:01:58;79.25;61.00;38.25
67714;PMS7003;54505;44.022;20.458;2023-04-09T12:04:24;79.50;62.75;38.00
67714;PMS7003;54505;44.022;20.458;2023-04-09T12:06:52;78.75;61.75;38.00
67714;PMS7003;54505;44.022;20.458;2023-04-09T12:09:21;84.25;63.00;40.00
67714;PMS7003;54505;44.022;20.458;2023-04-09T12:11:47;85.00;67.00;42.25
67714;PMS7003;54505;44.022;20.458;2023-04-09T12:14:13;82.75;68.00;43.25
67714;PMS7003;54505;44.022;20.458;2023-04-09T12:16:41;81.25;61.25;37.00
67714;PMS7003;54505;44.022;20.458;2023-04-09T12:19:08;84.25;61.25;37.00
67714;PMS7003;54505;44.022;20.458;2023-04-09T12:21:47;72.75;55.00;33.75
67714;PMS7003;54505;44.022;20.458;2023-04-09T12:24:14;73.25;56.50;36.25
67714;PMS7003;54505;44.022;20.458;2023-04-09T12:26:40;76.75;58.00;36.75
67714;PMS7003;54505;44.022;20.458;2023-04-09T12:29:05;74.50;57.50;37.25
67714;PMS7003;54505;44.022;20.458;2023-04-09T12:31:31;71.00;56.75;35.00
67714;PMS7003;54505;44.022;20.458;2023-04-09T12:33:57;69.00;53.25;34.50
67714;PMS7003;54505;44.022;20.458;2023-04-09T12:36:22;76.25;57.00;35.00
67714;PMS7003;54505;44.022;20.458;2023-04-09T12:38:48;79.00;61.75;37.75
67714;PMS7003;54505;44.022;20.458;2023-04-09T12:41:14;77.25;60.00;39.00
67714;PMS7003;54505;44.022;20.458;2023-04-09T12:43:40;84.50;70.25;41.00
67714;PMS7003;54505;44.022;20.458;2023-04-09T12:46:08;77.75;60.50;38.00
67714;PMS7003;54505;44.022;20.458;2023-04-09T12:48:34;76.75;58.25;37.25
67714;PMS7003;54505;44.022;20.458;2023-04-09T12:51:00;82.25;64.00;39.25
67714;PMS7003;54505;44.022;20.458;2023-04-09T12:53:26;74.75;55.50;36.50
67714;PMS7003;54505;44.022;20.458;2023-04-09T12:55:51;79.25;63.00;38.00
67714;PMS7003;54505;44.022;20.458;2023-04-09T12:58:17;73.00;57.25;36.00
67714;PMS7003;54505;44.022;20.458;2023-04-09T13:00:43;68.50;54.50;34.25
67714;PMS7003;54505;44.022;20.458;2023-04-09T13:03:08;68.00;52.50;34.75
67714;PMS7003;54505;44.022;20.458;2023-04-09T13:05:34;76.50;59.25;36.75
67714;PMS7003;54505;44.022;20.458;2023-04-09T13:08:02;73.00;55.00;34.00
67714;PMS7003;54505;44.022;20.458;2023-04-09T13:10:29;71.50;57.00;35.75
67714;PMS7003;54505;44.022;20.458;2023-04-09T13:12:55;76.75;60.25;38.50
67714;PMS7003;54505;44.022;20.458;2023-04-09T13:15:21;76.00;57.25;36.75
67714;PMS7003;54505;44.022;20.458;2023-04-09T13:17:46;76.00;56.75;35.00
67714;PMS7003;54505;44.022;20.458;2023-04-09T13:20:12;69.50;54.50;34.50
67714;PMS7003;54505;44.022;20.458;2023-04-09T13:22:38;59.00;46.75;31.50
67714;PMS7003;54505;44.022;20.458;2023-04-09T13:25:04;70.00;53.75;33.50
67714;PMS7003;54505;44.022;20.458;2023-04-09T13:27:29;69.75;55.00;36.75
67714;PMS7003;54505;44.022;20.458;2023-04-09T13:29:55;77.75;57.00;37.00
67714;PMS7003;54505;44.022;20.458;2023-04-09T13:32:21;75.75;57.25;33.75
67714;PMS7003;54505;44.022;20.458;2023-04-09T13:34:49;75.25;55.00;36.00
67714;PMS7003;54505;44.022;20.458;2023-04-09T13:37:15;72.50;55.50;36.75
67714;PMS7003;54505;44.022;20.458;2023-04-09T13:39:41;78.25;59.25;37.25
67714;PMS7003;54505;44.022;20.458;2023-04-09T13:42:06;73.25;56.50;36.75
67714;PMS7003;54505;44.022;20.458;2023-04-09T13:44:32;80.50;59.75;36.25
67714;PMS7003;54505;44.022;20.458;2023-04-09T13:46:59;82.25;61.00;39.25
67714;PMS7003;54505;44.022;20.458;2023-04-09T13:49:25;81.25;60.25;39.25